Time;durP1;ratioP1;P1;durP2;ratioP2;P2;SDS_P1;SDS_P2;PMS_P1;PMS_P2;Temp;Humidity;BMP_temperature;BMP_pressure;BME280_temperature;BME280_humidity;BME280_pressure;Samples;Min_cycle;Max_cycle;Signal;HPM_P1;HPM_P2
2021/06/07 00:01:17;;;;;;;2.50;2.30;;;;;;;19.41;46.84;100274.00;6320409;22;20009;-72
2021/06/07 00:03:44;;;;;;;4.25;2.45;;;;;;;19.25;46.86;100252.00;6320265;22;20006;-73
2021/06/07 00:06:09;;;;;;;2.58;2.10;;;;;;;19.21;46.99;100254.06;6347136;22;20031;-74
2021/06/07 00:08:35;;;;;;;3.63;2.50;;;;;;;19.29;47.04;100271.72;6344446;22;20045;-72
2021/06/07 00:11:01;;;;;;;2.45;2.20;;;;;;;19.12;47.63;100273.50;6313783;22;20006;-73
2021/06/07 00:13:28;;;;;;;2.60;2.40;;;;;;;19.10;47.99;100276.75;6287867;22;20410;-73
2021/06/07 00:15:55;;;;;;;2.15;2.05;;;;;;;19.04;48.42;100271.97;6313687;22;20003;-72
2021/06/07 00:18:25;;;;;;;2.35;2.25;;;;;;;19.00;48.46;100262.75;6287798;22;20014;-73
2021/06/07 00:21:17;;;;;;;3.35;2.40;;;;;;;19.10;48.67;100275.94;6313210;22;19994;-72
2021/06/07 00:23:44;;;;;;;5.25;3.45;;;;;;;19.04;48.33;100266.34;6313175;22;19998;-72
2021/06/07 00:26:09;;;;;;;3.00;2.70;;;;;;;18.86;48.65;100272.16;6328280;22;20018;-73
2021/06/07 00:28:36;;;;;;;2.78;2.47;;;;;;;18.73;48.81;100246.50;6340839;22;19995;-73
2021/06/07 00:31:04;;;;;;;3.22;2.15;;;;;;;18.83;49.06;100273.78;6339557;22;20341;-72
2021/06/07 00:33:30;;;;;;;2.88;2.38;;;;;;;18.88;48.86;100278.19;6340467;22;19998;-73
2021/06/07 00:35:56;;;;;;;4.40;2.42;;;;;;;18.98;48.49;100270.84;6338924;22;20005;-73
2021/06/07 00:38:22;;;;;;;3.00;2.00;;;;;;;18.83;48.92;100256.88;6339160;22;20074;-72
2021/06/07 00:40:47;;;;;;;4.53;2.63;;;;;;;18.96;48.61;100270.44;6340255;22;20044;-73
2021/06/07 00:43:13;;;;;;;6.40;2.40;;;;;;;18.94;48.80;100273.69;6339059;22;20013;-73
2021/06/07 00:45:40;;;;;;;3.15;2.60;;;;;;;18.93;48.80;100272.09;6339091;22;20026;-73
2021/06/07 00:48:07;;;;;;;2.92;2.72;;;;;;;18.94;49.00;100273.69;6313163;22;20007;-73
2021/06/07 00:50:53;;;;;;;2.97;2.33;;;;;;;18.99;49.09;100278.88;6341247;22;20090;-73
2021/06/07 00:53:19;;;;;;;2.63;2.42;;;;;;;19.03;49.15;100271.19;6313259;22;20007;-73
2021/06/07 00:55:53;;;;;;;3.00;2.58;;;;;;;19.04;48.92;100275.59;6340839;22;20048;-73
2021/06/07 00:58:23;;;;;;;3.00;2.65;;;;;;;18.82;49.43;100255.28;6339325;22;20299;-73
2021/06/07 01:00:49;;;;;;;2.83;2.60;;;;;;;18.87;49.71;100265.31;6340186;22;20002;-73
2021/06/07 01:03:16;;;;;;;3.53;3.08;;;;;;;18.87;49.72;100284.25;6338881;22;20491;-73
2021/06/07 01:05:43;;;;;;;5.57;3.17;;;;;;;18.83;49.80;100273.78;6313721;22;20011;-73
2021/06/07 01:08:08;;;;;;;4.38;2.58;;;;;;;18.70;50.29;100258.63;6338847;22;20067;-73
2021/06/07 01:10:35;;;;;;;4.00;2.80;;;;;;;18.81;50.22;100293.16;6340098;22;20073;-73
2021/06/07 01:13:00;;;;;;;2.80;2.55;;;;;;;18.82;50.15;100283.47;6340464;22;20417;-73
2021/06/07 01:15:27;;;;;;;3.92;3.05;;;;;;;18.75;50.48;100280.72;6340372;22;19999;-73
2021/06/07 01:17:53;;;;;;;4.28;2.80;;;;;;;18.70;50.63;100281.16;6338808;22;20531;-73
2021/06/07 01:20:21;;;;;;;3.55;3.25;;;;;;;18.62;50.70;100262.69;6338967;22;19998;-73
2021/06/07 01:22:49;;;;;;;4.47;2.95;;;;;;;18.60;50.97;100253.84;6338807;22;20002;-73
2021/06/07 01:25:30;;;;;;;4.57;3.90;;;;;;;18.94;53.40;100272.88;6341065;22;20014;-73
2021/06/07 01:27:56;;;;;;;2.85;2.65;;;;;;;18.86;51.80;100277.00;6314657;22;20025;-73
2021/06/07 01:30:31;;;;;;;4.18;3.20;;;;;;;18.89;51.50;100276.16;6313032;22;19998;-73
2021/06/07 01:32:58;;;;;;;3.97;3.35;;;;;;;18.91;51.59;100270.88;6340279;22;20049;-73
2021/06/07 01:35:26;;;;;;;3.75;3.05;;;;;;;18.89;51.59;100270.53;6312841;22;20415;-73
2021/06/07 01:37:53;;;;;;;2.90;2.70;;;;;;;18.74;51.71;100270.63;6286625;22;20007;-73
2021/06/07 01:40:22;;;;;;;3.78;3.47;;;;;;;18.73;51.77;100280.31;6340892;22;20379;-73
2021/06/07 01:42:48;;;;;;;3.20;2.90;;;;;;;18.57;52.33;100252.66;6312916;22;20294;-73
2021/06/07 01:45:16;;;;;;;4.55;3.20;;;;;;;18.71;52.61;100265.84;6312904;22;20030;-73
2021/06/07 01:47:42;;;;;;;3.42;3.10;;;;;;;18.64;52.87;100265.88;6312448;22;20013;-73
2021/06/07 01:50:10;;;;;;;4.10;3.33;;;;;;;18.51;53.10;100245.06;6340153;22;20022;-73
2021/06/07 01:52:43;;;;;;;3.40;3.10;;;;;;;18.58;53.58;100267.53;6312426;22;20006;-73
2021/06/07 01:55:16;;;;;;;4.68;4.00;;;;;;;18.58;53.73;100261.91;6340120;22;20478;-73
2021/06/07 01:57:43;;;;;;;6.10;3.63;;;;;;;18.52;54.05;100258.72;6314450;22;20459;-73
2021/06/07 02:00:31;;;;;;;4.75;3.03;;;;;;;18.48;54.57;100263.63;6339698;22;19994;-73
2021/06/07 02:02:57;;;;;;;3.13;2.83;;;;;;;18.40;55.14;100258.44;6339519;22;20151;-73
2021/06/07 02:05:28;;;;;;;5.07;3.28;;;;;;;18.30;55.11;100241.19;6340374;22;20422;-73
2021/06/07 02:08:03;;;;;;;4.50;3.05;;;;;;;18.38;55.30;100258.88;6312217;22;20036;-72
2021/06/07 02:10:33;;;;;;;3.20;2.92;;;;;;;18.36;55.40;100260.47;6340334;22;19999;-73
2021/06/07 02:12:59;;;;;;;3.70;3.22;;;;;;;18.35;54.95;100264.50;6339974;22;19998;-72
2021/06/07 02:15:24;;;;;;;4.57;3.60;;;;;;;18.30;55.34;100258.09;6339889;22;20310;-73
2021/06/07 02:17:50;;;;;;;4.47;3.47;;;;;;;18.32;55.41;100254.88;6340263;22;20021;-72
2021/06/07 02:20:20;;;;;;;3.55;3.22;;;;;;;18.44;54.97;100260.03;6339498;22;20407;-72
2021/06/07 02:22:49;;;;;;;5.03;3.20;;;;;;;18.36;55.35;100250.00;6312101;22;20402;-72
2021/06/07 02:25:17;;;;;;;3.60;3.30;;;;;;;18.38;55.09;100252.44;6315723;22;20010;-73
2021/06/07 02:27:43;;;;;;;3.67;3.20;;;;;;;18.40;54.95;100255.63;6338644;22;20040;-73
2021/06/07 02:30:14;;;;;;;3.97;3.58;;;;;;;18.35;54.79;100254.03;6312239;22;20002;-72
2021/06/07 02:32:40;;;;;;;7.47;3.67;;;;;;;18.43;54.25;100254.78;6338400;22;20078;-72
2021/06/07 02:35:11;;;;;;;3.65;3.35;;;;;;;18.36;54.33;100252.03;6338185;22;20041;-72
2021/06/07 02:37:36;;;;;;;5.38;3.67;;;;;;;18.36;54.55;100247.19;6339733;22;20024;-73
2021/06/07 02:40:04;;;;;;;4.43;3.97;;;;;;;18.58;53.26;100251.44;6338163;22;20006;-73
2021/06/07 02:42:30;;;;;;;3.85;3.50;;;;;;;18.61;54.38;100254.66;6338502;22;20414;-72
2021/06/07 02:44:56;;;;;;;8.50;4.47;;;;;;;18.52;53.94;100246.66;6338462;22;20083;-72
2021/06/07 02:47:22;;;;;;;3.60;3.30;;;;;;;18.44;53.60;100251.56;6338131;22;20003;-73
2021/06/07 02:49:47;;;;;;;4.90;4.45;;;;;;;18.36;53.69;100226.69;6340060;22;19994;-73
2021/06/07 02:52:13;;;;;;;3.85;3.55;;;;;;;18.47;53.68;100252.75;6341334;22;20007;-73
2021/06/07 02:54:38;;;;;;;4.45;3.80;;;;;;;18.28;53.84;100249.28;6340308;22;20009;-73
2021/06/07 02:57:05;;;;;;;4.35;3.95;;;;;;;18.31;53.69;100254.06;6346518;22;20006;-73
2021/06/07 02:59:31;;;;;;;4.07;3.78;;;;;;;18.31;54.35;100256.88;6346662;22;19999;-73
2021/06/07 03:01:56;;;;;;;7.68;6.90;;;;;;;18.35;54.38;100258.88;6339929;22;20030;-72
2021/06/07 03:04:22;;;;;;;8.98;8.07;;;;;;;18.31;55.12;100258.91;6339639;22;20003;-72
2021/06/07 03:06:48;;;;;;;9.43;8.00;;;;;;;18.26;55.37;100248.88;6339616;22;20009;-72
2021/06/07 03:09:13;;;;;;;10.73;7.85;;;;;;;18.23;55.97;100252.53;6339893;22;19995;-72
2021/06/07 03:11:39;;;;;;;9.70;8.80;;;;;;;18.22;56.00;100255.78;6339581;22;20463;-72
2021/06/07 03:14:04;;;;;;;8.25;7.55;;;;;;;18.18;56.11;100264.22;6339582;22;19995;-72
2021/06/07 03:16:30;;;;;;;6.97;6.28;;;;;;;18.26;56.07;100262.16;6337823;22;20003;-72
2021/06/07 03:18:55;;;;;;;4.93;4.53;;;;;;;18.27;55.96;100269.41;6339572;22;20026;-72
2021/06/07 03:21:21;;;;;;;4.75;3.55;;;;;;;18.21;55.96;100254.94;6339900;22;20395;-72
2021/06/07 03:23:47;;;;;;;7.00;3.70;;;;;;;18.23;55.87;100258.16;6340228;22;19998;-72
2021/06/07 03:26:13;;;;;;;4.32;3.92;;;;;;;18.26;55.28;100262.94;6339276;22;20361;-72
2021/06/07 03:28:39;;;;;;;3.28;3.08;;;;;;;18.32;55.19;100243.59;6339489;22;19999;-73
2021/06/07 03:31:07;;;;;;;4.25;3.80;;;;;;;18.36;55.36;100249.22;6339836;22;20064;-73
2021/06/07 03:33:34;;;;;;;3.97;3.67;;;;;;;18.46;55.27;100248.31;6312479;22;20010;-73
2021/06/07 03:36:00;;;;;;;5.45;3.83;;;;;;;18.37;54.94;100239.53;6312079;22;20416;-73
2021/06/07 03:38:33;;;;;;;3.72;3.42;;;;;;;18.46;54.98;100253.97;6339461;22;20009;-73
2021/06/07 03:41:00;;;;;;;4.97;4.32;;;;;;;18.48;55.63;100257.16;6312622;22;19999;-73
2021/06/07 03:43:33;;;;;;;5.53;5.13;;;;;;;18.49;55.37;100255.97;6314463;22;20068;-74
2021/06/07 03:45:59;;;;;;;10.40;5.80;;;;;;;18.52;55.27;100255.13;6312167;22;20085;-73
2021/06/07 03:48:26;;;;;;;5.90;5.40;;;;;;;18.58;55.34;100253.44;6339695;22;20417;-73
2021/06/07 03:50:52;;;;;;;5.32;4.82;;;;;;;18.59;54.99;100243.81;6311609;22;20003;-73
2021/06/07 03:53:17;;;;;;;7.13;4.32;;;;;;;18.68;54.63;100249.75;6311684;22;20006;-73
2021/06/07 03:55:44;;;;;;;12.27;3.90;;;;;;;18.77;54.37;100246.47;6339224;22;20003;-73
2021/06/07 03:58:10;;;;;;;8.40;3.63;;;;;;;18.90;53.96;100238.28;6312402;22;20002;-73
2021/06/07 04:00:37;;;;;;;5.40;3.65;;;;;;;19.02;52.81;100235.75;6312008;22;20062;-73
2021/06/07 04:03:07;;;;;;;4.55;3.30;;;;;;;19.31;51.92;100241.84;6311937;22;20097;-73
2021/06/07 04:05:35;;;;;;;4.18;3.78;;;;;;;19.78;50.81;100242.09;6312400;22;19999;-72
2021/06/07 04:08:02;;;;;;;5.50;3.17;;;;;;;20.17;49.77;100235.06;6340421;22;20026;-73
2021/06/07 04:10:28;;;;;;;4.40;3.10;;;;;;;20.47;49.03;100230.59;6313677;22;20003;-73
2021/06/07 04:12:55;;;;;;;3.13;2.92;;;;;;;20.53;49.20;100228.88;6340863;22;20069;-73
2021/06/07 04:15:24;;;;;;;3.40;3.10;;;;;;;20.73;48.49;100229.75;6312991;22;19999;-74
2021/06/07 04:17:50;;;;;;;3.35;2.95;;;;;;;20.89;47.80;100235.50;6312949;22;19999;-72
2021/06/07 04:20:19;;;;;;;4.97;2.67;;;;;;;20.79;47.95;100230.84;6340307;22;19999;-73
2021/06/07 04:22:45;;;;;;;3.80;3.22;;;;;;;20.91;47.15;100218.88;6313164;22;20487;-73
2021/06/07 04:25:13;;;;;;;3.15;2.80;;;;;;;20.88;47.05;100233.91;6315876;22;20034;-73
2021/06/07 04:27:40;;;;;;;3.30;3.10;;;;;;;20.71;47.00;100220.88;6341098;22;20003;-73
2021/06/07 04:30:12;;;;;;;3.30;3.00;;;;;;;20.65;47.05;100216.94;6339808;22;20010;-73
2021/06/07 04:32:39;;;;;;;4.53;2.78;;;;;;;20.57;46.72;100207.00;6338627;22;20005;-73
2021/06/07 04:35:06;;;;;;;3.55;2.63;;;;;;;20.61;47.04;100219.84;6340632;22;20005;-72
2021/06/07 04:37:41;;;;;;;3.45;3.08;;;;;;;20.64;46.97;100226.66;6339687;22;20076;-73
2021/06/07 04:40:07;;;;;;;4.20;3.00;;;;;;;20.53;47.33;100206.25;6341373;22;20410;-72
2021/06/07 04:42:33;;;;;;;2.53;2.33;;;;;;;20.65;48.14;100209.25;6338936;22;20010;-72
2021/06/07 04:44:59;;;;;;;3.45;3.15;;;;;;;20.54;48.27;100207.84;6339030;22;20009;-73
2021/06/07 04:47:26;;;;;;;3.20;2.97;;;;;;;20.54;48.02;100197.34;6340527;22;19995;-73
2021/06/07 04:49:52;;;;;;;3.83;3.22;;;;;;;20.66;47.87;100210.06;6338988;22;19999;-72
2021/06/07 04:52:17;;;;;;;3.17;2.97;;;;;;;20.72;47.73;100207.53;6340869;22;20043;-72
2021/06/07 04:54:43;;;;;;;3.75;3.05;;;;;;;20.73;47.91;100212.78;6339411;22;20079;-72
2021/06/07 04:57:11;;;;;;;5.28;2.97;;;;;;;20.84;47.98;100210.53;6340037;22;20009;-73
2021/06/07 04:59:37;;;;;;;3.10;2.72;;;;;;;20.91;47.35;100213.22;6340506;22;19995;-73
2021/06/07 05:02:03;;;;;;;3.05;2.78;;;;;;;20.89;47.90;100218.53;6339184;22;20002;-73
2021/06/07 05:04:28;;;;;;;3.22;2.88;;;;;;;20.86;47.98;100205.25;6341047;22;20002;-74
2021/06/07 05:06:54;;;;;;;4.40;2.60;;;;;;;20.84;47.93;100216.19;6340131;22;20410;-73
2021/06/07 05:09:19;;;;;;;3.17;2.63;;;;;;;20.86;47.62;100218.59;6340332;22;19998;-73
2021/06/07 05:11:45;;;;;;;4.18;3.13;;;;;;;20.81;47.52;100225.53;6340230;22;19999;-73
2021/06/07 05:14:15;;;;;;;2.70;2.40;;;;;;;20.78;44.46;100223.59;6338708;22;20002;-73
2021/06/07 05:16:41;;;;;;;2.95;2.65;;;;;;;20.62;44.73;100220.66;6340402;22;19995;-73
2021/06/07 05:19:06;;;;;;;3.20;2.92;;;;;;;20.66;45.10;100229.84;6338608;22;20086;-73
2021/06/07 05:21:32;;;;;;;3.63;1.88;;;;;;;20.58;45.58;100215.06;6338661;22;19999;-73
2021/06/07 05:23:57;;;;;;;4.43;2.42;;;;;;;20.55;45.45;100232.06;6339904;22;20026;-73
2021/06/07 05:26:23;;;;;;;2.45;2.25;;;;;;;20.38;45.87;100209.28;6337911;22;20015;-73
2021/06/07 05:28:48;;;;;;;3.03;2.72;;;;;;;20.42;45.91;100218.53;6339774;22;19999;-73
2021/06/07 05:31:14;;;;;;;3.55;2.30;;;;;;;20.44;45.76;100229.38;6338404;22;20299;-73
2021/06/07 05:33:39;;;;;;;2.88;2.50;;;;;;;20.49;45.76;100228.13;6339975;22;20051;-73
2021/06/07 05:36:05;;;;;;;4.15;2.50;;;;;;;20.59;45.90;100235.63;6338137;22;20006;-73
2021/06/07 05:38:31;;;;;;;3.03;2.60;;;;;;;20.79;45.85;100230.03;6340312;22;20006;-72
2021/06/07 05:40:59;;;;;;;4.80;2.90;;;;;;;20.84;46.35;100238.81;6339856;22;19998;-73
2021/06/07 05:43:24;;;;;;;4.85;2.72;;;;;;;20.90;46.29;100244.78;6338576;22;19998;-73
2021/06/07 05:45:51;;;;;;;2.78;2.47;;;;;;;20.91;46.47;100237.88;6340099;22;20311;-73
2021/06/07 05:48:18;;;;;;;6.13;3.20;;;;;;;21.10;46.43;100247.66;6338977;22;20427;-73
2021/06/07 05:50:44;;;;;;;3.30;2.97;;;;;;;21.22;46.19;100232.84;6339575;22;20013;-73
2021/06/07 05:53:11;;;;;;;2.80;2.60;;;;;;;21.23;45.73;100234.44;6340583;22;20310;-73
2021/06/07 05:55:40;;;;;;;3.17;2.53;;;;;;;21.25;45.90;100250.97;6340185;22;20022;-74
2021/06/07 05:58:16;;;;;;;3.20;2.47;;;;;;;21.32;45.96;100246.00;6338178;22;19999;-73
2021/06/07 06:00:48;;;;;;;2.97;2.60;;;;;;;21.40;46.27;100249.50;6338071;22;20032;-72
2021/06/07 06:03:14;;;;;;;2.55;2.35;;;;;;;21.49;45.90;100243.25;6339389;22;20426;-72
2021/06/07 06:05:40;;;;;;;4.40;2.83;;;;;;;21.61;45.58;100251.06;6339635;22;20022;-73
2021/06/07 06:08:06;;;;;;;2.70;2.50;;;;;;;21.61;44.70;100262.41;6338147;22;20003;-72
2021/06/07 06:10:33;;;;;;;7.78;3.50;;;;;;;21.48;45.16;100258.66;6337942;22;20003;-73
2021/06/07 06:12:58;;;;;;;2.70;2.50;;;;;;;21.27;45.59;100259.84;6338630;22;19998;-73
2021/06/07 06:15:25;;;;;;;3.05;2.30;;;;;;;21.24;45.79;100269.19;6337688;22;20350;-73
2021/06/07 06:17:52;;;;;;;4.65;2.55;;;;;;;21.35;45.53;100264.94;6338309;22;20011;-73
2021/06/07 06:20:19;;;;;;;2.17;2.03;;;;;;;21.33;45.56;100272.28;6339778;22;20469;-73
2021/06/07 06:22:47;;;;;;;8.35;2.70;;;;;;;21.85;44.33;100266.75;6339379;22;20302;-73
2021/06/07 06:25:15;;;;;;;3.45;2.92;;;;;;;21.77;44.74;100264.50;6338914;22;20013;-73
2021/06/07 06:27:41;;;;;;;3.58;2.20;;;;;;;21.75;44.88;100272.63;6311604;22;20007;-73
2021/06/07 06:30:10;;;;;;;4.93;2.67;;;;;;;21.49;46.23;100285.72;6339720;22;20082;-73
2021/06/07 06:32:37;;;;;;;4.00;2.90;;;;;;;21.15;46.94;100279.06;6311702;22;19999;-73
2021/06/07 06:35:03;;;;;;;3.03;2.72;;;;;;;20.86;48.75;100267.47;6312372;22;20022;-74
2021/06/07 06:37:28;;;;;;;4.75;2.90;;;;;;;20.90;50.23;100281.53;6339529;22;20383;-74
2021/06/07 06:39:54;;;;;;;5.95;3.10;;;;;;;20.96;50.50;100287.50;6339696;22;19995;-74
2021/06/07 06:42:19;;;;;;;6.15;3.30;;;;;;;20.84;50.65;100292.53;6339252;22;20029;-74
2021/06/07 06:44:45;;;;;;;6.47;3.45;;;;;;;20.78;52.20;100282.97;6311766;22;20124;-74
2021/06/07 06:47:10;;;;;;;7.68;3.47;;;;;;;20.72;52.32;100287.50;6312205;22;19999;-74
2021/06/07 06:49:36;;;;;;;9.32;3.60;;;;;;;20.54;53.38;100281.34;6340022;22;20125;-73
2021/06/07 06:52:03;;;;;;;9.43;3.92;;;;;;;20.40;53.41;100283.16;6311988;22;20030;-73
2021/06/07 06:54:29;;;;;;;6.60;4.40;;;;;;;20.45;52.99;100279.03;6340257;22;20063;-73
2021/06/07 06:56:54;;;;;;;5.18;3.95;;;;;;;20.54;51.94;100292.66;6311629;22;20485;-73
2021/06/07 06:59:20;;;;;;;5.95;3.75;;;;;;;20.61;52.60;100289.69;6339665;22;20077;-74
2021/06/07 07:01:45;;;;;;;6.25;3.95;;;;;;;20.30;53.48;100281.28;6339913;22;20022;-73
2021/06/07 07:04:11;;;;;;;6.47;4.10;;;;;;;20.49;53.14;100285.44;6311903;22;20078;-73
2021/06/07 07:06:37;;;;;;;7.65;4.95;;;;;;;20.87;52.93;100286.00;6311783;22;20060;-73
2021/06/07 07:09:04;;;;;;;6.47;5.05;;;;;;;20.84;53.28;100286.09;6311874;22;20010;-73
2021/06/07 07:11:30;;;;;;;7.90;4.88;;;;;;;20.92;53.07;100279.88;6286083;22;20060;-73
2021/06/07 07:13:56;;;;;;;6.70;5.60;;;;;;;21.40;52.54;100289.09;6339888;22;20002;-73
2021/06/07 07:16:21;;;;;;;9.80;5.80;;;;;;;21.92;50.66;100283.56;6311657;22;20006;-73
2021/06/07 07:18:47;;;;;;;8.95;5.57;;;;;;;22.82;48.60;100285.09;6339489;22;20045;-73
2021/06/07 07:21:13;;;;;;;9.63;5.57;;;;;;;23.26;46.57;100279.91;6311892;22;20040;-73
2021/06/07 07:23:38;;;;;;;18.73;6.82;;;;;;;23.22;47.08;100273.53;6311324;22;20078;-73
2021/06/07 07:26:04;;;;;;;8.57;5.15;;;;;;;23.98;46.93;100282.31;6325059;22;20014;-74
2021/06/07 07:28:30;;;;;;;12.35;5.82;;;;;;;24.07;45.04;100286.50;6339191;22;19999;-74
2021/06/07 07:30:56;;;;;;;10.27;4.75;;;;;;;23.77;47.26;100280.91;6337632;22;20022;-74
2021/06/07 07:33:22;;;;;;;9.40;4.75;;;;;;;24.53;46.24;100287.91;6339123;22;20005;-74
2021/06/07 07:35:48;;;;;;;8.48;4.38;;;;;;;23.71;48.23;100279.09;6338167;22;20002;-74
2021/06/07 07:38:13;;;;;;;7.53;3.80;;;;;;;24.85;46.02;100286.84;6339513;22;20026;-74
2021/06/07 07:40:41;;;;;;;5.53;3.53;;;;;;;24.85;46.48;100286.84;6339892;22;19994;-73
2021/06/07 07:43:07;;;;;;;5.50;4.30;;;;;;;24.77;46.12;100288.34;6341055;22;20001;-73
2021/06/07 07:45:32;;;;;;;5.18;3.92;;;;;;;25.01;45.36;100266.75;6340495;22;19995;-73
2021/06/07 07:48:01;;;;;;;5.63;3.95;;;;;;;25.95;43.73;100275.59;6340348;22;20131;-73
2021/06/07 07:50:28;;;;;;;4.68;3.35;;;;;;;26.43;43.36;100281.84;6339503;22;20364;-74
2021/06/07 07:52:54;;;;;;;4.43;3.97;;;;;;;26.38;43.96;100275.47;6339499;22;20085;-73
2021/06/07 07:55:25;;;;;;;8.05;4.43;;;;;;;26.13;44.21;100287.06;6339567;22;20354;-74
2021/06/07 07:57:53;;;;;;;5.32;3.97;;;;;;;25.48;47.05;100282.22;6339266;22;20003;-74
2021/06/07 08:00:24;;;;;;;9.82;5.00;;;;;;;25.65;48.18;100280.75;6341133;22;20003;-74
2021/06/07 08:02:50;;;;;;;7.57;3.47;;;;;;;26.81;46.12;100279.41;6339726;22;20022;-73
2021/06/07 08:05:15;;;;;;;9.85;3.25;;;;;;;26.90;45.69;100272.94;6340700;22;20049;-74
2021/06/07 08:07:41;;;;;;;6.18;2.80;;;;;;;26.89;45.86;100279.91;6340704;22;20033;-74
2021/06/07 08:10:08;;;;;;;7.72;3.42;;;;;;;26.73;46.45;100274.47;6340760;22;19995;-74
2021/06/07 08:12:35;;;;;;;4.65;3.00;;;;;;;27.77;44.58;100285.81;6338972;22;20007;-74
2021/06/07 08:15:01;;;;;;;6.97;4.07;;;;;;;26.22;47.11;100283.47;6313228;22;20002;-74
2021/06/07 08:17:27;;;;;;;3.75;2.85;;;;;;;25.91;48.48;100292.81;6339118;22;20015;-74
2021/06/07 08:19:52;;;;;;;4.82;3.35;;;;;;;25.98;48.09;100291.75;6340550;22;20011;-73
2021/06/07 08:22:19;;;;;;;6.63;3.40;;;;;;;25.37;49.81;100298.91;6339688;22;20026;-73
2021/06/07 08:24:45;;;;;;;3.60;2.47;;;;;;;25.34;49.78;100295.69;6339193;22;20003;-74
2021/06/07 08:27:11;;;;;;;3.72;3.17;;;;;;;25.83;47.77;100280.09;6312992;22;20003;-73
2021/06/07 08:29:37;;;;;;;4.97;2.95;;;;;;;26.25;47.31;100293.94;6313741;22;20364;-73
2021/06/07 08:32:03;;;;;;;3.40;2.58;;;;;;;26.63;46.44;100294.44;6313359;22;20156;-73
2021/06/07 08:34:29;;;;;;;3.72;2.58;;;;;;;27.25;45.02;100295.50;6313057;22;19999;-74
2021/06/07 08:36:54;;;;;;;5.88;2.72;;;;;;;26.58;46.43;100303.63;6313726;22;20044;-74
2021/06/07 08:39:20;;;;;;;4.70;2.70;;;;;;;26.43;47.16;100307.53;6314919;22;20081;-74
2021/06/07 08:41:47;;;;;;;3.72;2.17;;;;;;;25.35;49.07;100307.88;6341189;22;20430;-73
2021/06/07 08:44:15;;;;;;;5.00;2.30;;;;;;;25.87;47.90;100309.25;6313655;22;19998;-73
2021/06/07 08:46:41;;;;;;;6.65;3.58;;;;;;;25.92;47.88;100317.22;6340547;22;19999;-73
2021/06/07 08:49:06;;;;;;;8.18;2.50;;;;;;;26.47;46.85;100308.16;6340513;22;20005;-74
2021/06/07 08:51:33;;;;;;;6.13;2.00;;;;;;;26.48;46.30;100304.06;6313707;22;20003;-73
2021/06/07 08:53:58;;;;;;;3.58;2.30;;;;;;;26.66;46.18;100314.72;6340501;22;19999;-74
2021/06/07 08:56:24;;;;;;;5.45;2.30;;;;;;;27.79;44.12;100311.84;6340363;22;19999;-74
2021/06/07 08:58:55;;;;;;;3.88;2.42;;;;;;;27.40;44.73;100302.97;6340365;22;19999;-73
2021/06/07 09:01:23;;;;;;;3.47;1.75;;;;;;;27.50;44.46;100315.19;6312757;22;19995;-73
2021/06/07 09:03:51;;;;;;;4.55;1.92;;;;;;;28.14;42.87;100303.69;6312612;22;19995;-73
2021/06/07 09:06:24;;;;;;;4.53;2.72;;;;;;;27.44;44.37;100316.31;6312638;22;20418;-74
2021/06/07 09:09:00;;;;;;;4.60;2.17;;;;;;;27.02;45.87;100317.69;6340284;22;19999;-73
2021/06/07 09:11:29;;;;;;;4.28;2.03;;;;;;;26.57;46.40;100316.28;6312585;22;20426;-73
2021/06/07 09:13:55;;;;;;;8.43;2.42;;;;;;;26.68;46.35;100297.91;6339837;22;19999;-73
2021/06/07 09:16:23;;;;;;;5.25;2.20;;;;;;;27.12;46.02;100309.97;6312288;22;20002;-73
2021/06/07 09:18:50;;;;;;;7.65;2.03;;;;;;;26.85;46.74;100317.16;6312995;22;20311;-73
2021/06/07 09:21:19;;;;;;;4.90;2.45;;;;;;;26.83;46.94;100318.91;6312421;22;20040;-73
2021/06/07 09:23:52;;;;;;;11.18;2.95;;;;;;;26.55;47.10;100324.53;6340490;22;20487;-73
2021/06/07 09:26:24;;;;;;;2.85;1.98;;;;;;;26.13;48.44;100322.06;6339967;22;20010;-73
2021/06/07 09:28:54;;;;;;;6.80;1.83;;;;;;;26.30;48.56;100316.13;6339788;22;20318;-73
2021/06/07 09:31:33;;;;;;;6.15;2.28;;;;;;;25.72;48.98;100302.47;6339716;22;19999;-74
2021/06/07 09:34:06;;;;;;;8.52;2.70;;;;;;;25.48;49.92;100317.19;6313278;22;20003;-73
2021/06/07 09:36:35;;;;;;;6.95;2.47;;;;;;;25.67;49.60;100320.16;6311689;22;20411;-73
2021/06/07 09:39:30;;;;;;;4.03;2.30;;;;;;;25.68;49.92;100324.63;6313291;22;20268;-73
2021/06/07 09:42:04;;;;;;;10.30;2.95;;;;;;;25.67;49.05;100311.63;6340303;22;20055;-73
2021/06/07 09:44:34;;;;;;;8.50;2.17;;;;;;;25.68;49.41;100324.63;6340187;22;20003;-73
2021/06/07 09:47:12;;;;;;;4.10;1.88;;;;;;;26.03;48.42;100326.13;6312641;22;20029;-73
2021/06/07 09:49:43;;;;;;;12.35;2.47;;;;;;;26.13;48.26;100327.00;6311503;22;20002;-73
2021/06/07 09:52:14;;;;;;;4.50;2.20;;;;;;;26.13;46.94;100330.63;6311465;22;20002;-73
2021/06/07 09:54:40;;;;;;;7.53;2.42;;;;;;;26.07;48.04;100318.25;6339577;22;19995;-73
2021/06/07 09:57:06;;;;;;;13.73;2.28;;;;;;;26.61;46.86;100316.94;6339717;22;20092;-73
2021/06/07 09:59:37;;;;;;;6.35;1.67;;;;;;;27.01;45.96;100327.53;6311988;22;20148;-73
2021/06/07 10:02:23;;;;;;;4.07;1.75;;;;;;;27.22;45.72;100319.31;6311572;22;20587;-73
2021/06/07 10:05:00;;;;;;;4.68;2.15;;;;;;;27.08;46.17;100310.09;6310677;22;20003;-72
2021/06/07 10:07:26;;;;;;;3.30;1.80;;;;;;;26.47;46.70;100328.13;6312120;22;20035;-72
2021/06/07 10:10:18;;;;;;;4.30;1.52;;;;;;;26.92;45.98;100316.06;6311969;22;20399;-72
2021/06/07 10:12:45;;;;;;;4.57;1.88;;;;;;;27.00;46.05;100325.91;6311578;22;20003;-73
2021/06/07 10:15:14;;;;;;;2.78;1.73;;;;;;;27.96;43.70;100326.59;6339627;22;20018;-73
2021/06/07 10:17:40;;;;;;;2.85;1.52;;;;;;;28.20;42.60;100330.34;6311448;22;20415;-73
2021/06/07 10:22:38;;;;;;;3.05;1.90;;;;;;;28.52;42.33;100330.91;6334129;22;20085;-73
2021/06/07 10:25:05;;;;;;;5.28;1.90;;;;;;;29.37;40.47;100325.78;6312253;22;20010;-72
2021/06/07 10:27:33;;;;;;;5.43;1.88;;;;;;;29.19;40.73;100323.06;6339510;22;19998;-72
2021/06/07 10:30:01;;;;;;;5.93;2.58;;;;;;;27.44;44.05;100325.69;6337623;22;20007;-73
2021/06/07 10:32:29;;;;;;;5.80;1.45;;;;;;;28.91;41.19;100313.84;6339164;22;20371;-73
2021/06/07 10:35:02;;;;;;;5.47;1.60;;;;;;;29.02;41.44;100314.09;6339286;22;20071;-72
2021/06/07 10:37:29;;;;;;;4.57;1.83;;;;;;;29.70;39.54;100324.91;6338680;22;20073;-74
2021/06/07 10:40:31;;;;;;;3.38;1.70;;;;;;;29.77;38.27;100315.13;6336905;22;20063;-73
2021/06/07 10:43:00;;;;;;;3.42;1.52;;;;;;;28.68;41.20;100307.59;6212975;23;20127;-72
2021/06/07 10:45:29;;;;;;;5.20;2.00;;;;;;;28.57;42.08;100307.34;6309469;22;19999;-73
2021/06/07 10:47:55;;;;;;;3.30;2.10;;;;;;;28.76;41.69;100308.03;6337393;22;19999;-73
2021/06/07 10:50:24;;;;;;;3.95;1.77;;;;;;;28.38;41.54;100300.91;6311641;22;20311;-73
2021/06/07 10:52:57;;;;;;;5.03;2.10;;;;;;;28.53;41.89;100303.88;6337308;22;20007;-72
2021/06/07 10:55:24;;;;;;;3.83;2.15;;;;;;;27.89;43.68;100304.06;6337031;22;20064;-73
2021/06/07 10:57:58;;;;;;;4.38;2.10;;;;;;;28.35;42.65;100315.41;6338577;22;20100;-73
2021/06/07 11:00:46;;;;;;;3.65;2.08;;;;;;;28.58;41.51;100314.66;6337061;22;20007;-72
2021/06/07 11:03:22;;;;;;;4.35;2.25;;;;;;;28.86;40.70;100305.91;6337135;22;20006;-72
2021/06/07 11:05:53;;;;;;;7.68;2.20;;;;;;;29.09;40.79;100305.16;6336912;22;20006;-73
2021/06/07 11:08:28;;;;;;;2.90;2.05;;;;;;;28.55;40.85;100304.19;6306701;22;20003;-72
2021/06/07 11:11:02;;;;;;;3.08;1.52;;;;;;;29.18;40.14;100307.94;6339032;22;20002;-73
2021/06/07 11:13:45;;;;;;;2.55;1.90;;;;;;;28.48;42.64;100301.66;6339409;22;20003;-72
2021/06/07 11:16:24;;;;;;;4.10;2.35;;;;;;;29.25;40.28;100303.94;6338775;22;20438;-74
2021/06/07 11:19:01;;;;;;;3.75;2.50;;;;;;;28.60;41.24;100299.84;6341112;22;19999;-74
2021/06/07 11:21:47;;;;;;;5.07;1.90;;;;;;;28.83;41.04;100295.44;6340673;22;19998;-74
2021/06/07 11:24:42;;;;;;;4.72;1.70;;;;;;;29.31;39.75;100287.63;6341130;22;19998;-73
2021/06/07 11:27:35;;;;;;;4.93;2.17;;;;;;;28.31;41.16;100283.28;6335094;22;20100;-73
2021/06/07 11:30:18;;;;;;;3.53;1.95;;;;;;;28.89;40.86;100277.09;6338533;22;20007;-73
2021/06/07 11:32:43;;;;;;;2.58;1.60;;;;;;;28.91;40.85;100288.06;6339840;22;20049;-73